Alton, IL (62002)

12:03 AM CST on February 08, 2016 (GMT -0600)
Alton Amtrak | | Change Station
CLOSE
Current Station
Personal Weather Station
Location: Alton, IL
Elevation: 489 ft
Nearby Weather Stations

Elev 489 ft 38.91 °N, 90.14 °W | Updated 48 seconds ago

Overcast
Overcast
38.5 °F
Feels Like 35 °F
N
4.5
Wind Variable Wind from SE
Gusts 4.5 mph

Today
High -- | Low -- °F
--% Chance of Precip.
Yesterday
High -- | Low -- °F
Precip. -- in
Pressure 29.83 in
Visibility 10.0 miles
Clouds Scattered Clouds 7000 ft
Scattered Clouds 8000 ft
Overcast 10000 ft
Windchill 35 °F
Dew Point 31 °F
Humidity 73%
Rainfall 0.00 in
Snow Depth Not available.
7:00 AM 5:29 PM
Waning Crescent, 0% visible
METAR KALN 080555Z AUTO 25008KT 10SM SCT070 SCT080 OVC100 02/00 A2983 RMK AO2 T00221005 10076 20000 401030000
Pressure 29.83 in
Visibility 10.0 miles
Clouds Scattered Clouds 7000 ft
Scattered Clouds 8000 ft
Overcast 10000 ft
Windchill 35 °F
Dew Point 31 °F
Humidity 73%
Rainfall 0.00 in
Snow Depth Not available.
7:00 AM 5:29 PM
Waning Crescent, 0% visible
METAR KALN 080555Z AUTO 25008KT 10SM SCT070 SCT080 OVC100 02/00 A2983 RMK AO2 T00221005 10076 20000 401030000

10-Day Weather Forecast

Almanac

Astronomy

Feb. 08, 2016 Rise Set
Actual Time
Civil Twilight
Nautical Twilight
Astronomical Twilight
Moon
Length of Visible Light
Length of Day
Tomorrow will be .
, % of the Moon is Illuminated

Today's Extremes

State Highs State Lows

Community

WunderPhotos

Upload Photos

1,891,392 photos uploaded!

WunderBlog® & News

Nearby

Air Quality

  Air Quality AQ Index Pollutant
Not available.

Snow Depth

Station Depth Elevation

Earthquake Activity

City Distance Mag. Time & Date
Minimum magnitude displayed is 2.5.

Coastal Water Temperatures

Place Temperature

Stations

Nearby Weather Stations

Station Location Temp. Windchill Dew Point Humidity Wind Precip. Elev Updated Type
                   

Watches & Warnings

There are currently no watches in effect.